Time;durP1;ratioP1;P1;durP2;ratioP2;P2;SDS_P1;SDS_P2;PMS_P1;PMS_P2;Temp;Humidity;BMP_temperature;BMP_pressure;BME280_temperature;BME280_humidity;BME280_pressure;Samples;Min_cycle;Max_cycle;Signal;HPM_P1;HPM_P2
2024/03/06 00:00:23;;;;;;;0.40;0.40;;;;;;;4.07;100.00;99415.78;5032319;28;20745;-56
2024/03/06 00:02:50;;;;;;;0.60;0.60;;;;;;;4.14;100.00;99405.19;5037739;28;20048;-58
2024/03/06 00:05:18;;;;;;;0.50;0.50;;;;;;;4.06;100.00;99414.94;5033595;28;20044;-57
2024/03/06 00:07:45;;;;;;;0.50;0.50;;;;;;;4.06;100.00;99416.78;5036917;28;20095;-57
2024/03/06 00:10:13;;;;;;;0.60;0.60;;;;;;;3.97;100.00;99415.28;5034540;28;20087;-57
2024/03/06 00:12:41;;;;;;;0.50;0.50;;;;;;;3.89;100.00;99410.97;5028513;28;20156;-57
2024/03/06 00:15:08;;;;;;;0.50;0.50;;;;;;;3.79;100.00;99413.16;5034210;28;20045;-57
2024/03/06 00:17:36;;;;;;;0.45;0.45;;;;;;;3.82;100.00;99420.69;5032938;28;20049;-58
2024/03/06 00:20:05;;;;;;;0.50;0.50;;;;;;;3.79;100.00;99411.31;5029340;28;20073;-56
2024/03/06 00:22:32;;;;;;;0.40;0.40;;;;;;;3.71;100.00;99415.94;5037175;28;20041;-57
2024/03/06 00:24:59;;;;;;;0.50;0.50;;;;;;;3.77;100.00;99426.63;5037408;28;20099;-58
2024/03/06 00:27:27;;;;;;;0.55;0.55;;;;;;;3.65;100.00;99425.50;5039777;28;20121;-57
2024/03/06 00:29:54;;;;;;;0.50;0.50;;;;;;;3.55;100.00;99444.38;5032125;28;20037;-56
2024/03/06 00:32:23;;;;;;;0.50;0.50;;;;;;;3.54;100.00;99440.06;5030723;28;20055;-58
2024/03/06 00:34:50;;;;;;;0.60;0.60;;;;;;;3.56;100.00;99443.38;5029168;28;20051;-56
2024/03/06 00:37:17;;;;;;;0.60;0.60;;;;;;;3.51;100.00;99448.41;5031420;28;20051;-56
2024/03/06 00:39:46;;;;;;;0.50;0.50;;;;;;;3.49;100.00;99455.72;5028705;28;20061;-57
2024/03/06 00:42:13;;;;;;;0.40;0.40;;;;;;;3.49;100.00;99453.09;5028022;28;20132;-57
2024/03/06 00:44:42;;;;;;;0.40;0.40;;;;;;;3.47;100.00;99457.78;5033389;28;20135;-57
2024/03/06 00:47:09;;;;;;;0.40;0.40;;;;;;;3.42;100.00;99462.81;5029013;28;20160;-58
2024/03/06 00:49:36;;;;;;;0.55;0.55;;;;;;;3.43;100.00;99461.81;5032966;28;20069;-57
2024/03/06 00:52:04;;;;;;;0.50;0.50;;;;;;;3.42;100.00;99470.75;5034129;28;20522;-57
2024/03/06 00:54:32;;;;;;;0.50;0.50;;;;;;;3.42;100.00;99463.66;5027833;28;20392;-58
2024/03/06 00:56:59;;;;;;;0.68;0.68;;;;;;;3.39;100.00;99471.13;5034360;28;20045;-57
2024/03/06 00:59:26;;;;;;;0.50;0.50;;;;;;;3.37;100.00;99466.03;5039972;28;20461;-58
2024/03/06 01:01:56;;;;;;;0.50;0.50;;;;;;;3.38;100.00;99475.63;5036406;28;20084;-58
2024/03/06 01:04:22;;;;;;;0.50;0.50;;;;;;;3.32;100.00;99472.91;5032027;28;20049;-57
2024/03/06 01:06:49;;;;;;;0.50;0.50;;;;;;;3.38;100.00;99478.28;5036705;28;20091;-58
2024/03/06 01:09:17;;;;;;;0.60;0.60;;;;;;;3.35;100.00;99480.50;5040548;28;20032;-57
2024/03/06 01:11:46;;;;;;;0.50;0.50;;;;;;;3.32;100.00;99478.19;5035742;28;20049;-58
2024/03/06 01:14:13;;;;;;;0.60;0.60;;;;;;;3.29;100.00;99481.22;5031556;28;20055;-57
2024/03/06 01:16:42;;;;;;;0.40;0.40;;;;;;;3.29;100.00;99482.03;5035093;28;20403;-57
2024/03/06 01:19:10;;;;;;;0.70;0.70;;;;;;;3.29;100.00;99486.53;5031465;28;20525;-58
2024/03/06 01:21:39;;;;;;;0.70;0.70;;;;;;;3.20;100.00;99499.91;5029285;28;20075;-57
2024/03/06 01:24:06;;;;;;;0.60;0.60;;;;;;;3.18;100.00;99493.97;5038188;28;20037;-56
2024/03/06 01:26:33;;;;;;;0.70;0.70;;;;;;;3.16;100.00;99497.81;5033118;28;20045;-56
2024/03/06 01:29:00;;;;;;;0.50;0.50;;;;;;;3.10;100.00;99499.41;5032556;28;20670;-58
2024/03/06 01:31:27;;;;;;;0.40;0.40;;;;;;;3.13;100.00;99501.66;5045981;28;20060;-57
2024/03/06 01:33:55;;;;;;;0.50;0.50;;;;;;;3.14;100.00;99498.00;5032279;28;20079;-57
2024/03/06 01:36:23;;;;;;;0.55;0.55;;;;;;;3.14;100.00;99499.81;5035664;28;20045;-57
2024/03/06 01:38:51;;;;;;;0.60;0.60;;;;;;;3.09;100.00;99508.34;5030960;28;20049;-58
2024/03/06 01:41:18;;;;;;;0.50;0.50;;;;;;;3.00;100.00;99498.88;5035904;28;20053;-57
2024/03/06 01:43:45;;;;;;;0.60;0.60;;;;;;;3.00;100.00;99504.19;5033759;28;20755;-58
2024/03/06 01:46:12;;;;;;;0.60;0.60;;;;;;;3.05;100.00;99499.13;5038352;28;20156;-58
2024/03/06 01:48:39;;;;;;;0.70;0.70;;;;;;;2.89;100.00;99500.16;5034768;28;20510;-55
2024/03/06 01:51:06;;;;;;;0.50;0.50;;;;;;;2.83;100.00;99497.47;5028864;28;20049;-56
2024/03/06 01:53:35;;;;;;;0.52;0.52;;;;;;;2.96;100.00;99505.53;5026948;28;20063;-57
2024/03/06 01:56:03;;;;;;;0.70;0.70;;;;;;;2.88;100.00;99495.06;5037969;28;20048;-58
2024/03/06 01:58:31;;;;;;;0.50;0.50;;;;;;;2.94;100.00;99494.31;5032009;28;20045;-57
2024/03/06 02:00:58;;;;;;;0.60;0.60;;;;;;;2.89;100.00;99492.22;5034038;28;20053;-57
2024/03/06 02:03:26;;;;;;;0.60;0.60;;;;;;;2.96;100.00;99493.13;5027608;28;20057;-57
2024/03/06 02:05:53;;;;;;;0.50;0.50;;;;;;;2.88;100.00;99485.28;5035918;28;20053;-58
2024/03/06 02:08:20;;;;;;;0.60;0.60;;;;;;;2.76;100.00;99484.94;5038838;28;20122;-57
2024/03/06 02:10:49;;;;;;;0.47;0.47;;;;;;;2.62;100.00;99485.81;5031082;28;20059;-58
2024/03/06 02:13:18;;;;;;;0.65;0.65;;;;;;;2.51;100.00;99484.44;5032957;28;20053;-58
2024/03/06 02:15:45;;;;;;;0.70;0.70;;;;;;;2.52;100.00;99486.09;5031387;28;20045;-58
2024/03/06 02:18:12;;;;;;;0.60;0.60;;;;;;;2.60;100.00;99485.16;5029975;28;20053;-57
2024/03/06 02:20:41;;;;;;;0.50;0.50;;;;;;;2.56;100.00;99486.53;5027396;28;20163;-57
2024/03/06 02:23:08;;;;;;;0.50;0.50;;;;;;;2.56;100.00;99486.53;5033333;28;20556;-56
2024/03/06 02:25:35;;;;;;;0.50;0.50;;;;;;;2.33;100.00;99478.72;5039784;28;20049;-58
2024/03/06 02:28:02;;;;;;;0.60;0.60;;;;;;;2.22;100.00;99485.28;5034346;28;20056;-58
2024/03/06 02:30:36;;;;;;;0.60;0.60;;;;;;;2.33;100.00;99494.56;5036644;28;20080;-57
2024/03/06 02:33:03;;;;;;;0.60;0.60;;;;;;;2.21;100.00;99482.81;5030999;28;20494;-58
2024/03/06 02:35:30;;;;;;;0.70;0.70;;;;;;;2.20;100.00;99487.28;5036123;28;20124;-58
2024/03/06 02:37:59;;;;;;;0.50;0.50;;;;;;;2.16;100.00;99486.00;5036187;28;20763;-58
2024/03/06 02:40:26;;;;;;;0.50;0.50;;;;;;;2.14;100.00;99485.34;5026326;28;20128;-58
2024/03/06 02:42:53;;;;;;;0.60;0.60;;;;;;;2.13;100.00;99487.19;5030671;28;20032;-58
2024/03/06 02:45:21;;;;;;;0.70;0.70;;;;;;;2.09;100.00;99485.06;5029997;28;20553;-57
2024/03/06 02:47:48;;;;;;;0.70;0.70;;;;;;;2.08;100.00;99488.72;5034551;28;20065;-57
2024/03/06 02:50:15;;;;;;;0.73;0.73;;;;;;;2.03;100.00;99480.53;5036435;28;20091;-56
2024/03/06 02:52:42;;;;;;;0.70;0.70;;;;;;;2.06;100.00;99480.97;5033717;28;20067;-58
2024/03/06 02:55:10;;;;;;;0.63;0.63;;;;;;;2.21;100.00;99488.91;5034198;28;20045;-58
2024/03/06 02:57:37;;;;;;;0.50;0.50;;;;;;;2.07;100.00;99487.91;5032366;28;20064;-59
2024/03/06 03:00:09;;;;;;;0.65;0.65;;;;;;;2.13;100.00;99496.94;5030041;28;20052;-57
2024/03/06 03:02:35;;;;;;;0.60;0.60;;;;;;;1.97;100.00;99499.72;5035676;28;20061;-58
2024/03/06 03:05:03;;;;;;;0.60;0.60;;;;;;;1.98;100.00;99491.63;5025976;28;20087;-58
2024/03/06 03:07:30;;;;;;;0.70;0.70;;;;;;;1.97;100.00;99503.19;5027778;28;20043;-57
2024/03/06 03:09:57;;;;;;;0.60;0.60;;;;;;;1.97;100.00;99505.84;5031722;28;20045;-58
2024/03/06 03:12:25;;;;;;;0.60;0.60;;;;;;;1.82;100.00;99507.63;5046499;28;20140;-58
2024/03/06 03:14:52;;;;;;;0.50;0.50;;;;;;;1.48;100.00;99506.28;5032631;28;20063;-58
2024/03/06 03:17:20;;;;;;;0.70;0.70;;;;;;;1.21;100.00;99512.91;5025958;28;20059;-57
2024/03/06 03:19:47;;;;;;;0.40;0.40;;;;;;;1.01;100.00;99507.25;5025239;28;20056;-58
2024/03/06 03:22:14;;;;;;;0.77;0.77;;;;;;;0.98;100.00;99518.97;5028953;28;20123;-57
2024/03/06 03:24:42;;;;;;;0.80;0.80;;;;;;;0.76;100.00;99525.00;5029433;28;20056;-57
2024/03/06 03:27:09;;;;;;;0.90;0.90;;;;;;;0.80;100.00;99523.66;5026277;28;20068;-57
2024/03/06 03:29:38;;;;;;;0.80;0.80;;;;;;;0.92;100.00;99524.91;5034695;28;20124;-57
2024/03/06 03:32:05;;;;;;;1.00;1.00;;;;;;;1.13;100.00;99528.78;5036145;28;20047;-58
2024/03/06 03:34:32;;;;;;;0.80;0.80;;;;;;;1.25;100.00;99540.59;5030575;28;20136;-58
2024/03/06 03:36:59;;;;;;;1.10;1.10;;;;;;;1.31;100.00;99539.91;5031321;28;20690;-58
2024/03/06 03:39:27;;;;;;;1.10;1.10;;;;;;;1.28;100.00;99540.25;5027476;28;20168;-57
2024/03/06 03:41:54;;;;;;;0.82;0.82;;;;;;;1.37;100.00;99548.94;5030204;28;20679;-59
2024/03/06 03:44:21;;;;;;;0.80;0.80;;;;;;;1.46;100.00;99553.97;5024668;28;20069;-59
2024/03/06 03:46:52;;;;;;;0.90;0.90;;;;;;;1.47;100.00;99550.38;5046374;28;20046;-57
2024/03/06 03:49:19;;;;;;;0.93;0.93;;;;;;;1.35;100.00;99557.03;5025573;28;20049;-58
2024/03/06 03:51:46;;;;;;;0.90;0.90;;;;;;;1.21;100.00;99552.50;5027725;28;20063;-58
2024/03/06 03:54:15;;;;;;;0.65;0.65;;;;;;;1.45;100.00;99552.34;5029592;28;20049;-58
2024/03/06 03:56:42;;;;;;;0.70;0.70;;;;;;;1.46;100.00;99555.81;5033367;28;20334;-58
2024/03/06 03:59:09;;;;;;;0.70;0.70;;;;;;;1.25;100.00;99559.91;5030717;28;20049;-58
2024/03/06 04:01:36;;;;;;;0.60;0.60;;;;;;;1.04;100.00;99568.41;5027477;28;20055;-58
2024/03/06 04:04:05;;;;;;;0.57;0.57;;;;;;;1.01;100.00;99565.31;5027270;28;20147;-58
2024/03/06 04:06:32;;;;;;;0.60;0.60;;;;;;;1.08;100.00;99551.25;5029324;28;20045;-58
2024/03/06 04:08:59;;;;;;;0.50;0.50;;;;;;;1.14;100.00;99559.47;5032146;28;20144;-58
2024/03/06 04:11:26;;;;;;;0.50;0.50;;;;;;;1.17;100.00;99556.47;5029826;28;20127;-58
2024/03/06 04:13:53;;;;;;;0.68;0.68;;;;;;;1.03;100.00;99553.59;5027054;28;20491;-58
2024/03/06 04:16:20;;;;;;;0.63;0.63;;;;;;;0.87;100.00;99556.28;5025386;28;20556;-58
2024/03/06 04:18:47;;;;;;;0.60;0.60;;;;;;;0.79;100.00;99566.88;5028373;28;20084;-57
2024/03/06 04:21:16;;;;;;;0.68;0.68;;;;;;;0.82;100.00;99571.81;5025866;28;20479;-58
2024/03/06 04:23:44;;;;;;;0.52;0.52;;;;;;;0.91;100.00;99575.25;5026432;28;20053;-58
2024/03/06 04:26:11;;;;;;;0.50;0.50;;;;;;;0.92;100.00;99571.59;5036310;28;20072;-57
2024/03/06 04:28:38;;;;;;;0.90;0.90;;;;;;;0.97;100.00;99572.72;5038015;28;20487;-58
2024/03/06 04:31:05;;;;;;;0.73;0.73;;;;;;;0.83;100.00;99582.22;5026734;28;20037;-58
2024/03/06 04:33:32;;;;;;;0.57;0.57;;;;;;;0.72;100.00;99587.03;5034539;28;20076;-58
2024/03/06 04:36:02;;;;;;;0.70;0.70;;;;;;;0.39;100.00;99587.94;5026750;28;20049;-58
2024/03/06 04:38:30;;;;;;;0.70;0.70;;;;;;;0.69;100.00;99587.38;5031463;28;20835;-58
2024/03/06 04:40:57;;;;;;;0.80;0.80;;;;;;;0.66;100.00;99591.16;5035675;28;20041;-58
2024/03/06 04:43:24;;;;;;;0.70;0.70;;;;;;;0.77;100.00;99584.69;5028986;28;20049;-58
2024/03/06 04:45:51;;;;;;;0.70;0.70;;;;;;;0.86;100.00;99578.41;5035830;28;20057;-58
2024/03/06 04:48:18;;;;;;;0.77;0.77;;;;;;;0.81;100.00;99578.91;5034520;28;20057;-58
2024/03/06 04:50:45;;;;;;;0.60;0.60;;;;;;;0.79;100.00;99583.53;5034593;28;20103;-58
2024/03/06 04:53:12;;;;;;;0.60;0.60;;;;;;;0.78;100.00;99589.81;5037315;28;20075;-58
2024/03/06 04:55:41;;;;;;;0.70;0.70;;;;;;;0.77;100.00;99595.25;5028071;28;20117;-58
2024/03/06 04:58:08;;;;;;;0.80;0.80;;;;;;;0.77;100.00;99588.16;5035892;28;20049;-58
2024/03/06 05:00:35;;;;;;;0.80;0.80;;;;;;;0.68;100.00;99597.09;5030913;28;20057;-58
2024/03/06 05:03:02;;;;;;;0.60;0.60;;;;;;;0.73;100.00;99607.16;5033058;28;20091;-57
2024/03/06 05:05:29;;;;;;;0.80;0.80;;;;;;;0.62;100.00;99609.16;5031045;28;20040;-58
2024/03/06 05:07:57;;;;;;;0.70;0.70;;;;;;;0.72;100.00;99610.78;5038992;28;20080;-58
2024/03/06 05:10:26;;;;;;;0.60;0.60;;;;;;;0.81;100.00;99617.69;5031747;28;20121;-58
2024/03/06 05:12:54;;;;;;;0.70;0.70;;;;;;;0.77;100.00;99621.63;5033992;28;20478;-58
2024/03/06 05:15:21;;;;;;;0.70;0.70;;;;;;;0.71;100.00;99627.59;5030728;28;20045;-58
2024/03/06 05:17:48;;;;;;;0.80;0.80;;;;;;;0.56;100.00;99635.38;5036029;28;20053;-57
2024/03/06 05:20:16;;;;;;;0.75;0.75;;;;;;;0.45;100.00;99633.06;5032396;28;20128;-57
2024/03/06 05:22:43;;;;;;;0.50;0.50;;;;;;;0.34;100.00;99642.16;5033451;28;20053;-60
2024/03/06 05:25:10;;;;;;;0.65;0.65;;;;;;;0.44;100.00;99634.91;5034773;28;20178;-60
2024/03/06 05:27:37;;;;;;;0.60;0.60;;;;;;;0.51;100.00;99643.78;5032722;28;20045;-57
2024/03/06 05:30:08;;;;;;;0.60;0.60;;;;;;;0.74;100.00;99635.16;5042837;28;20119;-57
2024/03/06 05:32:35;;;;;;;0.70;0.70;;;;;;;0.73;100.00;99638.81;5039848;28;20134;-57
2024/03/06 05:35:03;;;;;;;0.80;0.80;;;;;;;0.75;100.00;99644.72;5036321;28;20037;-58
2024/03/06 05:37:33;;;;;;;0.73;0.73;;;;;;;0.55;100.00;99645.13;5039283;28;20043;-58
2024/03/06 05:40:00;;;;;;;0.70;0.70;;;;;;;0.66;100.00;99653.66;5034428;28;20041;-58
2024/03/06 05:42:27;;;;;;;0.60;0.60;;;;;;;0.70;100.00;99657.59;5028783;28;20131;-58
2024/03/06 05:44:55;;;;;;;0.75;0.75;;;;;;;0.60;100.00;99663.91;5030594;28;20096;-56
2024/03/06 05:47:23;;;;;;;0.50;0.50;;;;;;;0.71;100.00;99659.25;5031959;28;20045;-57
2024/03/06 05:49:51;;;;;;;0.70;0.70;;;;;;;0.72;100.00;99666.19;5034682;28;20132;-57
2024/03/06 05:52:19;;;;;;;0.85;0.85;;;;;;;0.76;100.00;99672.78;5029750;28;20057;-58
2024/03/06 05:54:47;;;;;;;0.57;0.57;;;;;;;0.78;100.00;99670.78;5030896;28;20069;-58
2024/03/06 05:57:15;;;;;;;0.60;0.60;;;;;;;0.81;100.00;99676.53;5033800;28;20049;-58
2024/03/06 05:59:43;;;;;;;0.63;0.63;;;;;;;0.81;100.00;99681.00;5031095;28;20630;-58
2024/03/06 06:02:10;;;;;;;0.80;0.80;;;;;;;0.93;100.00;99671.75;5036196;28;20397;-58
2024/03/06 06:04:39;;;;;;;0.80;0.80;;;;;;;1.15;100.00;99674.63;5041510;28;20396;-57
2024/03/06 06:07:06;;;;;;;0.70;0.70;;;;;;;0.97;100.00;99680.13;5040341;28;20037;-57
2024/03/06 06:09:34;;;;;;;0.80;0.80;;;;;;;1.07;100.00;99683.41;5035975;28;20136;-58
2024/03/06 06:12:01;;;;;;;0.70;0.70;;;;;;;1.10;100.00;99682.25;5022155;28;20052;-58
2024/03/06 06:14:29;;;;;;;0.70;0.70;;;;;;;1.01;100.00;99687.56;5035453;28;20198;-59
2024/03/06 06:16:57;;;;;;;0.77;0.77;;;;;;;1.09;100.00;99691.97;5034236;28;20171;-58
2024/03/06 06:19:26;;;;;;;0.75;0.75;;;;;;;1.24;100.00;99697.38;5028736;28;20069;-57
2024/03/06 06:21:55;;;;;;;0.73;0.73;;;;;;;1.35;100.00;99710.22;5034548;28;20634;-58
2024/03/06 06:24:22;;;;;;;0.75;0.75;;;;;;;1.46;100.00;99712.47;5027899;28;20554;-58
2024/03/06 06:26:52;;;;;;;0.70;0.70;;;;;;;1.48;100.00;99713.13;5029872;28;20527;-58
2024/03/06 06:29:20;;;;;;;0.70;0.70;;;;;;;1.67;100.00;99719.00;5031035;28;20037;-58
2024/03/06 06:31:47;;;;;;;0.60;0.60;;;;;;;1.73;100.00;99713.84;5030883;28;20140;-58
2024/03/06 06:34:15;;;;;;;0.50;0.50;;;;;;;1.63;100.00;99723.00;5027254;28;20033;-58
2024/03/06 06:36:46;;;;;;;0.50;0.50;;;;;;;1.89;100.00;99717.38;5025915;28;20041;-58
2024/03/06 06:39:16;;;;;;;0.70;0.70;;;;;;;2.21;100.00;99716.34;5031928;28;20072;-58
2024/03/06 06:41:44;;;;;;;0.70;0.70;;;;;;;2.30;100.00;99720.59;5023133;28;20060;-58
2024/03/06 06:44:11;;;;;;;0.60;0.60;;;;;;;1.88;100.00;99721.88;5027978;28;20045;-58
2024/03/06 06:46:39;;;;;;;0.57;0.57;;;;;;;2.00;100.00;99719.66;5014147;28;20053;-58
2024/03/06 06:49:06;;;;;;;0.82;0.82;;;;;;;2.06;100.00;99720.75;5032498;28;20048;-57
2024/03/06 06:51:33;;;;;;;0.70;0.70;;;;;;;2.31;100.00;99721.41;5025943;28;20061;-57
2024/03/06 06:54:00;;;;;;;0.68;0.68;;;;;;;2.23;100.00;99732.88;5023056;28;20423;-58
2024/03/06 06:56:28;;;;;;;0.70;0.70;;;;;;;2.45;100.00;99733.88;5027943;28;20773;-58
2024/03/06 06:58:56;;;;;;;0.70;0.70;;;;;;;2.59;100.00;99735.72;5027261;28;20681;-58
2024/03/06 07:01:23;;;;;;;0.60;0.60;;;;;;;2.29;100.00;99739.28;5027263;28;20047;-58
2024/03/06 07:03:51;;;;;;;0.50;0.50;;;;;;;2.67;100.00;99748.09;5033143;28;20060;-58
2024/03/06 07:06:18;;;;;;;0.68;0.68;;;;;;;3.14;100.00;99746.16;5034697;28;20084;-58
2024/03/06 07:08:47;;;;;;;0.63;0.63;;;;;;;3.63;100.00;99751.72;5024599;28;20106;-57
2024/03/06 07:11:17;;;;;;;0.60;0.60;;;;;;;3.28;100.00;99748.00;5023217;28;20107;-58
2024/03/06 07:13:46;;;;;;;0.57;0.57;;;;;;;2.76;100.00;99747.00;5043806;28;20488;-58
2024/03/06 07:16:14;;;;;;;0.57;0.57;;;;;;;2.56;100.00;99751.16;5026080;28;20061;-57
2024/03/06 07:18:42;;;;;;;0.60;0.60;;;;;;;2.51;100.00;99753.50;5034096;28;20048;-58
2024/03/06 07:21:09;;;;;;;0.70;0.70;;;;;;;2.86;100.00;99759.19;5028015;28;20045;-58
2024/03/06 07:23:37;;;;;;;0.73;0.73;;;;;;;3.37;100.00;99759.31;5027840;28;20456;-58
2024/03/06 07:26:05;;;;;;;0.52;0.52;;;;;;;3.17;100.00;99762.53;5036001;28;20045;-58
2024/03/06 07:28:32;;;;;;;0.52;0.52;;;;;;;3.46;100.00;99758.22;5033273;28;20052;-57
2024/03/06 07:31:02;;;;;;;0.65;0.65;;;;;;;3.64;100.00;99766.66;5022602;28;20582;-58
2024/03/06 07:33:30;;;;;;;0.70;0.70;;;;;;;3.55;100.00;99762.44;5029914;28;20041;-58
2024/03/06 07:35:58;;;;;;;0.60;0.60;;;;;;;3.40;100.00;99764.28;5018414;28;20045;-57
2024/03/06 07:38:25;;;;;;;0.80;0.80;;;;;;;3.91;100.00;99761.66;5020467;28;20060;-58
2024/03/06 07:40:53;;;;;;;0.60;0.60;;;;;;;5.38;100.00;99769.09;5036911;28;20358;-58
2024/03/06 07:43:20;;;;;;;0.50;0.50;;;;;;;6.17;100.00;99771.31;5033640;28;20056;-58
2024/03/06 07:45:48;;;;;;;0.52;0.52;;;;;;;4.90;100.00;99775.09;5034513;28;20053;-58
2024/03/06 07:48:17;;;;;;;0.50;0.50;;;;;;;3.84;100.00;99777.50;5032310;28;20049;-58
2024/03/06 07:50:44;;;;;;;0.75;0.75;;;;;;;4.60;100.00;99778.94;5031020;28;20053;-58
2024/03/06 07:53:11;;;;;;;0.70;0.70;;;;;;;6.45;100.00;99778.34;5025008;28;20033;-58
2024/03/06 07:55:38;;;;;;;0.50;0.50;;;;;;;7.59;100.00;99781.78;5027820;28;20138;-58
2024/03/06 07:58:05;;;;;;;0.40;0.40;;;;;;;8.52;100.00;99789.44;5033226;28;20056;-58
2024/03/06 08:00:32;;;;;;;0.60;0.60;;;;;;;9.09;94.19;99790.25;5035693;28;20116;-58
2024/03/06 08:03:00;;;;;;;0.30;0.30;;;;;;;9.37;88.93;99797.81;5035117;28;20125;-58
2024/03/06 08:05:29;;;;;;;0.40;0.40;;;;;;;9.32;87.04;99792.31;5027874;28;20041;-58
2024/03/06 08:07:56;;;;;;;0.40;0.40;;;;;;;9.04;84.41;99798.13;5028483;28;20053;-59
2024/03/06 08:10:23;;;;;;;0.35;0.35;;;;;;;9.47;86.66;99789.28;5022018;28;20072;-58
2024/03/06 08:12:50;;;;;;;0.40;0.40;;;;;;;9.37;84.90;99805.03;5035766;28;20073;-58
2024/03/06 08:15:17;;;;;;;0.30;0.30;;;;;;;9.02;86.79;99808.22;5040132;28;20098;-58
2024/03/06 08:17:44;;;;;;;0.47;0.47;;;;;;;9.68;84.65;99810.28;5030132;28;20052;-59
2024/03/06 08:20:12;;;;;;;0.40;0.40;;;;;;;9.96;81.96;99814.28;5035201;28;20128;-58
2024/03/06 08:22:41;;;;;;;0.32;0.32;;;;;;;8.20;88.13;99808.06;5024446;28;20111;-59
2024/03/06 08:25:09;;;;;;;0.30;0.30;;;;;;;6.92;100.00;99816.53;5031228;28;20057;-59
2024/03/06 08:27:36;;;;;;;0.40;0.40;;;;;;;7.58;100.00;99815.66;5037014;28;20056;-59
2024/03/06 08:30:04;;;;;;;0.50;0.50;;;;;;;6.55;99.16;99824.06;5033139;28;20041;-58
2024/03/06 08:32:33;;;;;;;0.47;0.47;;;;;;;7.11;100.00;99820.22;5031574;28;20049;-59
2024/03/06 08:35:00;;;;;;;0.40;0.40;;;;;;;5.95;100.00;99825.69;5034513;28;20046;-59
2024/03/06 08:37:27;;;;;;;0.40;0.40;;;;;;;5.99;100.00;99826.94;5030527;28;20056;-58
2024/03/06 08:39:55;;;;;;;0.47;0.47;;;;;;;5.94;100.00;99832.88;5033882;28;20053;-59
2024/03/06 08:42:22;;;;;;;0.50;0.50;;;;;;;5.22;100.00;99827.84;5028852;28;20129;-59
2024/03/06 08:44:49;;;;;;;0.50;0.50;;;;;;;4.59;100.00;99831.19;5033030;28;20052;-58
2024/03/06 08:47:17;;;;;;;0.60;0.60;;;;;;;6.46;100.00;99838.56;5032020;28;20037;-58
2024/03/06 08:49:44;;;;;;;0.50;0.50;;;;;;;7.79;100.00;99833.28;5041231;28;20648;-59
2024/03/06 08:52:12;;;;;;;0.50;0.50;;;;;;;8.31;99.39;99835.94;5033349;28;20133;-58
2024/03/06 08:54:41;;;;;;;0.35;0.35;;;;;;;9.59;92.64;99845.56;5032699;28;20052;-58
2024/03/06 08:57:09;;;;;;;0.40;0.40;;;;;;;9.85;88.90;99836.44;5037857;28;20101;-59
2024/03/06 08:59:36;;;;;;;0.50;0.50;;;;;;;9.02;90.82;99845.63;5040150;28;20041;-59
2024/03/06 09:02:13;;;;;;;0.50;0.50;;;;;;;10.29;85.20;99847.91;5040740;28;20048;-59
2024/03/06 09:04:40;;;;;;;0.40;0.40;;;;;;;10.05;84.35;99850.41;5034908;28;20492;-59
2024/03/06 09:07:07;;;;;;;0.35;0.35;;;;;;;11.23;80.01;99849.03;5031106;28;20675;-59
2024/03/06 09:09:35;;;;;;;0.40;0.40;;;;;;;11.49;77.00;99848.81;5037037;28;20549;-58
2024/03/06 09:12:04;;;;;;;0.40;0.40;;;;;;;11.77;73.95;99851.59;5029206;28;20777;-58
2024/03/06 09:14:33;;;;;;;0.30;0.30;;;;;;;11.42;76.77;99852.44;5028184;28;20672;-58
2024/03/06 09:17:00;;;;;;;0.22;0.22;;;;;;;11.91;76.05;99856.78;5037699;28;20120;-58
2024/03/06 09:19:27;;;;;;;0.30;0.30;;;;;;;11.64;77.62;99846.47;5028749;28;20525;-58
2024/03/06 09:21:54;;;;;;;0.20;0.20;;;;;;;12.03;75.99;99855.69;5030636;28;20526;-58
2024/03/06 09:24:21;;;;;;;0.20;0.20;;;;;;;11.78;78.58;99858.63;5027485;28;20052;-58
2024/03/06 09:26:49;;;;;;;0.20;0.20;;;;;;;12.24;75.75;99865.00;5036931;28;20051;-58
2024/03/06 09:29:16;;;;;;;0.20;0.20;;;;;;;12.31;75.42;99867.56;5032326;28;20119;-58
2024/03/06 09:31:44;;;;;;;0.10;0.10;;;;;;;11.21;78.86;99869.09;5028135;28;20057;-58
2024/03/06 09:34:12;;;;;;;0.20;0.20;;;;;;;11.67;77.05;99875.53;5035726;28;20048;-58
2024/03/06 09:36:39;;;;;;;0.20;0.20;;;;;;;11.50;78.79;99879.97;5032441;28;20095;-58
2024/03/06 09:39:07;;;;;;;0.10;0.10;;;;;;;10.77;83.66;99873.88;5042354;28;20045;-58
2024/03/06 09:41:35;;;;;;;0.20;0.20;;;;;;;10.53;84.43;99879.16;5027438;28;20136;-58
2024/03/06 09:44:02;;;;;;;0.10;0.10;;;;;;;11.04;85.26;99876.19;5025111;28;20472;-58
2024/03/06 09:46:29;;;;;;;0.20;0.20;;;;;;;8.89;86.88;99877.81;5047001;28;20840;-58
2024/03/06 09:48:57;;;;;;;0.20;0.20;;;;;;;10.26;89.85;99880.47;5032328;28;20052;-58
2024/03/06 09:51:24;;;;;;;0.20;0.20;;;;;;;11.17;84.51;99875.97;5031249;28;20132;-58
2024/03/06 09:53:52;;;;;;;0.20;0.20;;;;;;;11.74;76.52;99878.13;5027880;28;20045;-58
2024/03/06 09:56:20;;;;;;;0.25;0.25;;;;;;;11.72;76.34;99875.66;5027929;28;20497;-58
2024/03/06 09:58:47;;;;;;;0.20;0.20;;;;;;;12.79;75.12;99873.56;5029476;28;20040;-58
2024/03/06 10:01:14;;;;;;;0.20;0.20;;;;;;;11.95;75.19;99874.84;5034684;28;20037;-59
2024/03/06 10:03:41;;;;;;;0.20;0.20;;;;;;;11.96;73.66;99875.69;5028829;28;20139;-58
2024/03/06 10:06:10;;;;;;;0.20;0.20;;;;;;;11.33;78.86;99878.00;5027803;28;20073;-58
2024/03/06 10:08:38;;;;;;;0.20;0.20;;;;;;;12.06;75.92;99881.28;5028176;28;20739;-58
2024/03/06 10:11:06;;;;;;;0.30;0.30;;;;;;;11.49;75.03;99891.78;5035508;28;20045;-58
2024/03/06 10:13:33;;;;;;;0.10;0.10;;;;;;;11.97;72.75;99877.31;5032287;28;20458;-58
2024/03/06 10:16:01;;;;;;;0.20;0.20;;;;;;;10.85;79.87;99886.94;5033591;28;20389;-58
2024/03/06 10:18:28;;;;;;;0.20;0.20;;;;;;;10.95;80.79;99891.78;5036587;28;20041;-58
2024/03/06 10:20:55;;;;;;;0.20;0.20;;;;;;;11.47;81.18;99889.31;5034118;28;20055;-58
2024/03/06 10:23:23;;;;;;;0.25;0.25;;;;;;;12.18;80.36;99887.44;5025230;28;20539;-58
2024/03/06 10:25:52;;;;;;;0.20;0.20;;;;;;;11.65;82.87;99885.69;5035240;28;20042;-58
2024/03/06 10:28:19;;;;;;;0.30;0.30;;;;;;;11.58;81.16;99883.16;5034067;28;20072;-58
2024/03/06 10:30:46;;;;;;;0.20;0.20;;;;;;;12.10;82.44;99887.78;5032527;28;20609;-58
2024/03/06 10:33:14;;;;;;;0.30;0.30;;;;;;;12.91;78.12;99887.78;5030147;28;20151;-58
2024/03/06 10:35:41;;;;;;;0.30;0.30;;;;;;;12.01;83.78;99889.22;5035347;28;20037;-58
2024/03/06 10:38:08;;;;;;;0.20;0.20;;;;;;;11.87;84.18;99883.28;5035003;28;20799;-59
2024/03/06 10:40:37;;;;;;;0.25;0.25;;;;;;;12.70;79.09;99887.41;5030182;28;20045;-59
2024/03/06 10:43:06;;;;;;;0.20;0.20;;;;;;;13.20;76.88;99887.72;5034483;28;20436;-59
2024/03/06 10:45:41;;;;;;;0.17;0.17;;;;;;;12.75;78.43;99886.66;5025660;28;20045;-59
2024/03/06 10:48:08;;;;;;;0.20;0.20;;;;;;;13.47;75.66;99891.44;5027228;28;20132;-58
2024/03/06 10:50:36;;;;;;;0.20;0.20;;;;;;;12.77;76.87;99892.63;5030367;28;20053;-58
2024/03/06 10:53:03;;;;;;;0.10;0.10;;;;;;;13.33;67.71;99887.47;5023654;28;20120;-58
2024/03/06 10:55:30;;;;;;;0.20;0.20;;;;;;;12.29;70.13;99904.59;5033785;28;20073;-58
2024/03/06 10:57:58;;;;;;;0.20;0.20;;;;;;;12.44;69.48;99898.72;5029029;28;20051;-58
2024/03/06 11:00:28;;;;;;;0.20;0.20;;;;;;;12.34;70.70;99901.19;5031508;28;20072;-58
2024/03/06 11:02:55;;;;;;;0.30;0.30;;;;;;;11.73;74.08;99898.78;5035573;28;20050;-58
2024/03/06 11:05:22;;;;;;;0.20;0.20;;;;;;;11.66;76.41;99900.78;5027720;28;20045;-59
2024/03/06 11:07:49;;;;;;;0.20;0.20;;;;;;;11.42;76.53;99903.41;5034944;28;20575;-59
2024/03/06 11:10:31;;;;;;;0.20;0.20;;;;;;;11.34;76.54;99906.44;5034271;28;20041;-59
2024/03/06 11:12:59;;;;;;;0.20;0.20;;;;;;;11.34;78.21;99901.09;5024590;28;20157;-58
2024/03/06 11:15:26;;;;;;;0.20;0.20;;;;;;;10.74;83.03;99904.63;5031252;28;20741;-58
2024/03/06 11:17:54;;;;;;;0.22;0.22;;;;;;;10.54;84.08;99906.78;5032485;28;20045;-59
2024/03/06 11:20:24;;;;;;;0.25;0.25;;;;;;;10.54;82.27;99907.59;5034805;28;20160;-58
2024/03/06 11:23:08;;;;;;;0.30;0.30;;;;;;;10.30;87.71;99903.13;5031228;28;20488;-58
2024/03/06 11:26:12;;;;;;;0.20;0.20;;;;;;;10.40;84.84;99900.75;5032560;28;20068;-58
2024/03/06 11:28:50;;;;;;;0.30;0.30;;;;;;;11.06;82.56;99900.88;5032150;28;20059;-58
2024/03/06 11:31:18;;;;;;;0.20;0.20;;;;;;;10.38;84.86;99902.81;5030295;28;20500;-58
2024/03/06 11:33:46;;;;;;;0.30;0.30;;;;;;;11.05;79.73;99900.06;5027297;28;20053;-58
2024/03/06 11:36:20;;;;;;;0.30;0.30;;;;;;;11.22;78.65;99902.91;5033743;28;20119;-58